Time;durP1;ratioP1;P1;durP2;ratioP2;P2;SDS_P1;SDS_P2;PMS_P1;PMS_P2;Temp;Humidity;BMP_temperature;BMP_pressure;BME280_temperature;BME280_humidity;BME280_pressure;Samples;Min_cycle;Max_cycle;Signal;HPM_P1;HPM_P2
2022/08/12 00:44:42;;;;;;;3.47;1.95;;;18.20;48.00;;;;;;5079591;28;20036;-61
2022/08/12 00:47:09;;;;;;;6.63;1.90;;;18.10;48.40;;;;;;5080000;28;20061;-60
2022/08/12 00:49:36;;;;;;;2.60;2.00;;;18.10;48.20;;;;;;5075157;28;20479;-61
2022/08/12 00:52:06;;;;;;;2.00;1.80;;;18.10;48.40;;;;;;5079615;28;20112;-60
2022/08/12 00:54:47;;;;;;;1.98;1.50;;;18.10;48.60;;;;;;5062296;28;20438;-60
2022/08/12 00:57:19;;;;;;;4.40;1.77;;;18.00;49.60;;;;;;5079602;28;20067;-61
2022/08/12 00:59:49;;;;;;;4.13;2.22;;;18.00;48.90;;;;;;5065048;28;20029;-62
2022/08/12 01:02:28;;;;;;;2.30;1.90;;;18.00;49.20;;;;;;5080191;28;20036;-60
2022/08/12 01:13:34;;;;;;;7.63;1.80;;;17.90;49.20;;;;;;5081381;28;20104;-60
2022/08/12 01:16:03;;;;;;;2.75;1.83;;;17.80;49.30;;;;;;5080404;28;20036;-62
2022/08/12 01:18:31;;;;;;;3.22;1.90;;;17.80;49.40;;;;;;5078623;28;20035;-60
2022/08/12 01:21:10;;;;;;;5.53;1.65;;;17.80;49.60;;;;;;5082262;28;20012;-60
2022/08/12 01:24:16;;;;;;;4.50;2.10;;;17.70;49.90;;;;;;5071597;28;20043;-60
2022/08/12 01:26:46;;;;;;;3.83;1.88;;;17.70;50.70;;;;;;5083388;28;20028;-62
2022/08/12 01:29:14;;;;;;;5.28;1.77;;;17.70;49.80;;;;;;5075161;28;20134;-61
2022/08/12 01:31:44;;;;;;;2.05;1.85;;;17.70;49.80;;;;;;5082574;28;20036;-61
2022/08/12 01:34:18;;;;;;;3.03;2.13;;;17.60;50.00;;;;;;5076428;28;20021;-60
2022/08/12 01:36:54;;;;;;;2.78;2.03;;;17.60;50.40;;;;;;5083412;28;20044;-61
2022/08/12 01:39:27;;;;;;;3.25;1.90;;;17.60;50.80;;;;;;5084423;28;20032;-61
2022/08/12 01:41:57;;;;;;;3.35;1.92;;;17.60;50.40;;;;;;5081808;28;20029;-62
2022/08/12 01:44:27;;;;;;;4.18;1.92;;;17.50;50.30;;;;;;5083371;28;20032;-63
2022/08/12 01:47:13;;;;;;;4.47;2.05;;;17.50;50.50;;;;;;5082752;28;20025;-61
2022/08/12 01:49:44;;;;;;;3.33;2.30;;;17.50;51.30;;;;;;5081118;28;20044;-61
2022/08/12 01:52:28;;;;;;;5.22;2.05;;;17.40;50.90;;;;;;5081030;28;20024;-60
2022/08/12 01:54:57;;;;;;;2.33;1.80;;;17.40;51.30;;;;;;5073928;28;20082;-60
2022/08/12 01:57:43;;;;;;;1.98;1.77;;;17.40;50.60;;;;;;5049097;28;20052;-61
2022/08/12 02:00:13;;;;;;;2.33;1.90;;;17.30;51.50;;;;;;5082924;28;20016;-60
2022/08/12 02:03:01;;;;;;;1.98;1.50;;;17.30;51.00;;;;;;5084445;28;20494;-61
2022/08/12 02:12:05;;;;;;;2.78;1.90;;;17.10;51.00;;;;;;5021022;28;20080;-60
2022/08/12 02:14:55;;;;;;;2.45;1.85;;;17.10;51.50;;;;;;5020298;28;20044;-61
2022/08/12 02:17:26;;;;;;;3.05;2.08;;;17.00;51.80;;;;;;5008664;28;20050;-61
2022/08/12 02:20:24;;;;;;;3.83;1.90;;;17.00;51.20;;;;;;5017211;28;20034;-60
2022/08/12 02:22:51;;;;;;;2.25;2.00;;;17.00;52.60;;;;;;5021265;28;20043;-61
2022/08/12 02:25:32;;;;;;;4.03;2.22;;;17.00;51.70;;;;;;5025522;28;20041;-61
2022/08/12 02:28:00;;;;;;;4.00;1.80;;;17.00;51.80;;;;;;5019440;28;20036;-60
2022/08/12 02:30:30;;;;;;;2.28;1.90;;;16.90;51.90;;;;;;5017579;28;20041;-60
2022/08/12 02:32:58;;;;;;;1.92;1.80;;;16.90;52.20;;;;;;5022339;28;20048;-60
2022/08/12 02:35:29;;;;;;;2.08;1.90;;;16.90;52.10;;;;;;5018237;28;20057;-61
2022/08/12 02:37:57;;;;;;;4.97;1.95;;;16.90;52.20;;;;;;5020725;28;20552;-61
2022/08/12 02:40:25;;;;;;;2.08;1.90;;;16.80;52.20;;;;;;5018009;28;20034;-61
2022/08/12 02:43:27;;;;;;;2.40;1.90;;;16.80;52.20;;;;;;5025146;28;20403;-61
2022/08/12 02:46:04;;;;;;;2.00;1.80;;;16.80;53.30;;;;;;5071169;28;20017;-62
2022/08/12 02:48:53;;;;;;;6.90;1.88;;;16.80;52.80;;;;;;5082544;28;20033;-60
2022/08/12 02:51:29;;;;;;;4.00;1.98;;;16.70;52.40;;;;;;5072373;28;20040;-61
2022/08/12 02:53:57;;;;;;;2.15;1.95;;;16.70;52.60;;;;;;5077008;28;20066;-61
2022/08/12 02:56:26;;;;;;;2.60;2.08;;;16.70;52.00;;;;;;5081086;28;20044;-59
2022/08/12 02:58:53;;;;;;;4.05;2.05;;;16.70;52.30;;;;;;5083468;28;20049;-60
2022/08/12 03:01:23;;;;;;;1.80;1.65;;;16.60;52.40;;;;;;5081236;28;20032;-61
2022/08/12 03:03:54;;;;;;;5.60;2.08;;;16.60;52.80;;;;;;5063717;28;20147;-63
2022/08/12 03:06:22;;;;;;;2.97;1.90;;;16.60;52.80;;;;;;5081506;28;20032;-60
2022/08/12 03:08:52;;;;;;;2.22;2.03;;;16.60;53.00;;;;;;5080949;28;20024;-62
2022/08/12 03:11:25;;;;;;;2.33;2.13;;;16.60;53.00;;;;;;5081994;28;20052;-64
2022/08/12 03:14:02;;;;;;;2.85;2.30;;;16.60;53.20;;;;;;5073575;28;20025;-62
2022/08/12 03:16:30;;;;;;;2.22;2.00;;;16.50;53.00;;;;;;5082095;28;20032;-60
2022/08/12 03:18:56;;;;;;;3.28;2.20;;;16.50;53.40;;;;;;5082908;28;20039;-61
2022/08/12 03:21:26;;;;;;;2.88;1.83;;;16.50;52.80;;;;;;5082136;28;20033;-59
2022/08/12 03:23:53;;;;;;;2.30;2.10;;;16.50;53.00;;;;;;5080608;28;20111;-60
2022/08/12 03:26:24;;;;;;;3.38;1.98;;;16.40;53.20;;;;;;5082049;28;20033;-62
2022/08/12 03:28:55;;;;;;;4.05;1.83;;;16.40;53.10;;;;;;5072596;28;20091;-61
2022/08/12 03:31:28;;;;;;;5.07;2.00;;;16.40;53.20;;;;;;5073619;28;20036;-62
2022/08/12 03:33:58;;;;;;;4.13;2.15;;;16.40;53.30;;;;;;5070944;28;20054;-61
2022/08/12 03:36:26;;;;;;;2.55;2.10;;;16.30;53.50;;;;;;5063416;28;20036;-61
2022/08/12 03:41:50;;;;;;;3.53;2.10;;;16.20;53.50;;;;;;5081974;28;20040;-61
2022/08/12 04:01:08;;;;;;;3.90;2.10;;;16.00;53.90;;;;;;5070302;28;20058;-60
2022/08/12 04:03:52;;;;;;;2.75;2.03;;;16.00;54.10;;;;;;5080634;28;20029;-60
2022/08/12 04:06:28;;;;;;;4.27;2.40;;;15.90;54.20;;;;;;5070272;28;20054;-60
2022/08/12 04:08:56;;;;;;;2.78;2.15;;;15.90;54.90;;;;;;5078580;28;20031;-61
2022/08/12 04:14:21;;;;;;;4.43;1.77;;;15.90;54.50;;;;;;5083309;28;20070;-61
2022/08/12 04:16:48;;;;;;;3.33;1.95;;;15.90;54.50;;;;;;5074964;28;20028;-60
2022/08/12 04:19:15;;;;;;;3.65;1.98;;;15.80;54.50;;;;;;5082232;28;20033;-61
2022/08/12 04:21:41;;;;;;;2.67;1.88;;;15.80;54.50;;;;;;5079134;28;20086;-61
2022/08/12 04:24:08;;;;;;;3.80;2.53;;;15.80;54.50;;;;;;5081489;28;20028;-61
2022/08/12 04:26:35;;;;;;;3.65;1.90;;;15.80;54.80;;;;;;5080321;28;20035;-60
2022/08/12 04:29:01;;;;;;;2.70;2.10;;;15.80;54.90;;;;;;5083244;28;20028;-60
2022/08/12 04:31:34;;;;;;;2.53;1.98;;;15.70;54.90;;;;;;5081460;28;20088;-59
2022/08/12 04:34:01;;;;;;;2.88;1.98;;;15.70;55.50;;;;;;5082667;28;20025;-63
2022/08/12 04:36:28;;;;;;;2.40;1.98;;;15.70;55.10;;;;;;5079886;28;20039;-59
2022/08/12 04:38:54;;;;;;;3.08;2.05;;;15.70;55.10;;;;;;5079818;28;20051;-60
2022/08/12 04:41:20;;;;;;;3.83;1.90;;;15.70;55.00;;;;;;5079745;28;20028;-60
2022/08/12 04:43:47;;;;;;;3.67;2.00;;;15.70;55.20;;;;;;5081462;28;20039;-60
2022/08/12 04:46:13;;;;;;;2.75;2.03;;;15.70;55.40;;;;;;5082212;28;20049;-60
2022/08/12 04:48:39;;;;;;;6.43;2.10;;;15.70;55.50;;;;;;5081041;28;20036;-60
2022/08/12 04:51:05;;;;;;;2.38;1.83;;;15.70;55.50;;;;;;5080410;28;20025;-61
2022/08/12 04:53:31;;;;;;;5.55;2.15;;;15.70;55.40;;;;;;5063309;28;20036;-61
2022/08/12 04:55:59;;;;;;;3.03;2.20;;;15.80;55.80;;;;;;5080936;28;20082;-60
2022/08/12 04:58:25;;;;;;;6.35;2.38;;;15.80;55.60;;;;;;5073113;28;20068;-63
2022/08/12 05:00:50;;;;;;;3.35;2.10;;;15.90;55.60;;;;;;5079330;28;20024;-62
2022/08/12 05:03:16;;;;;;;3.75;2.67;;;15.90;55.70;;;;;;5072986;28;20079;-61
2022/08/12 05:05:43;;;;;;;6.78;2.38;;;16.00;55.80;;;;;;5067511;28;20044;-62
2022/08/12 05:08:17;;;;;;;3.05;2.38;;;16.10;55.70;;;;;;5068799;28;20029;-60
2022/08/12 05:10:45;;;;;;;2.75;1.85;;;16.20;56.30;;;;;;5064956;28;20028;-62
2022/08/12 05:13:14;;;;;;;3.42;2.22;;;16.20;55.70;;;;;;5081752;28;20076;-62
2022/08/12 05:15:41;;;;;;;4.10;2.20;;;16.30;55.80;;;;;;5066402;28;20029;-61
2022/08/12 05:18:06;;;;;;;4.40;2.53;;;16.50;55.60;;;;;;5073178;28;20058;-60
2022/08/12 05:20:33;;;;;;;4.90;2.88;;;16.60;55.70;;;;;;5078486;28;20045;-60
2022/08/12 05:23:10;;;;;;;3.17;2.25;;;16.70;55.70;;;;;;5074755;28;20063;-62
2022/08/12 05:25:36;;;;;;;4.60;2.33;;;16.70;56.00;;;;;;5070848;28;20446;-60
2022/08/12 05:28:04;;;;;;;6.93;2.30;;;16.80;55.40;;;;;;5063679;28;20021;-61
2022/08/12 05:30:32;;;;;;;4.00;2.50;;;17.00;55.70;;;;;;5074051;28;20040;-61
2022/08/12 05:32:58;;;;;;;6.43;2.17;;;17.10;55.60;;;;;;5076646;28;20025;-62
2022/08/12 05:35:24;;;;;;;4.18;2.35;;;17.20;55.50;;;;;;5072765;28;20025;-61
2022/08/12 05:38:54;;;;;;;4.38;2.30;;;17.30;55.40;;;;;;5055992;28;20037;-61
2022/08/12 05:40:38;;;;;;;2.95;2.10;;;17.40;55.10;;;;;;5060082;28;20032;-60
2022/08/12 05:43:05;;;;;;;4.03;3.05;;;17.60;55.00;;;;;;5070847;28;20091;-62
2022/08/12 05:45:31;;;;;;;9.10;2.55;;;17.70;55.00;;;;;;5083426;28;20037;-62
2022/08/12 05:47:56;;;;;;;4.60;2.63;;;17.80;54.80;;;;;;5072776;28;20040;-61
2022/08/12 05:50:22;;;;;;;4.18;2.35;;;18.00;54.60;;;;;;5083932;28;20021;-60
2022/08/12 05:52:48;;;;;;;4.68;2.55;;;18.10;54.60;;;;;;5063047;28;20116;-61
2022/08/12 05:55:13;;;;;;;5.32;2.75;;;18.30;54.60;;;;;;5073457;28;20079;-62
2022/08/12 05:57:39;;;;;;;4.60;2.50;;;18.50;54.60;;;;;;5080923;28;20052;-61
2022/08/12 06:00:05;;;;;;;4.10;2.80;;;18.60;54.60;;;;;;5063159;28;20036;-61
2022/08/12 06:02:31;;;;;;;3.80;2.58;;;18.80;54.30;;;;;;5080958;28;20035;-61
2022/08/12 06:04:59;;;;;;;3.03;2.45;;;19.00;54.30;;;;;;5083908;28;20111;-60
2022/08/12 06:07:24;;;;;;;4.93;2.47;;;19.10;54.40;;;;;;5083130;28;20383;-62
2022/08/12 06:09:50;;;;;;;7.25;2.83;;;19.30;54.10;;;;;;5084536;28;20071;-61
2022/08/12 06:12:22;;;;;;;3.40;2.30;;;19.50;54.00;;;;;;5081228;28;20028;-61
2022/08/12 06:14:48;;;;;;;5.38;2.17;;;19.60;53.20;;;;;;5083890;28;20028;-61
2022/08/12 06:17:14;;;;;;;3.13;1.65;;;19.80;52.40;;;;;;5076800;28;20046;-62
2022/08/12 06:19:40;;;;;;;2.30;1.60;;;19.90;51.50;;;;;;5084137;28;20028;-60
2022/08/12 06:22:06;;;;;;;4.35;1.90;;;20.20;51.20;;;;;;5082833;28;20037;-60
2022/08/12 06:24:32;;;;;;;9.10;1.55;;;20.30;50.90;;;;;;5084194;28;20039;-61
2022/08/12 06:26:58;;;;;;;4.10;1.50;;;20.50;50.60;;;;;;5082909;28;20025;-61
2022/08/12 06:29:24;;;;;;;3.85;1.58;;;20.70;50.50;;;;;;5084128;28;20060;-62
2022/08/12 06:31:50;;;;;;;3.88;1.60;;;20.90;50.10;;;;;;5081883;28;20090;-61
2022/08/12 06:34:17;;;;;;;2.70;1.35;;;21.10;49.90;;;;;;5082246;28;20033;-61
2022/08/12 06:36:44;;;;;;;2.35;1.50;;;21.20;49.50;;;;;;5082439;28;20045;-61
2022/08/12 06:39:12;;;;;;;1.85;1.50;;;21.40;49.10;;;;;;5082758;28;20025;-61
2022/08/12 06:44:22;;;;;;;2.92;1.45;;;21.80;48.60;;;;;;5082141;28;20043;-62
2022/08/12 06:46:47;;;;;;;3.83;1.30;;;21.90;48.00;;;;;;5080901;28;20036;-61
2022/08/12 06:49:13;;;;;;;2.50;1.45;;;22.10;48.00;;;;;;5083005;28;20034;-61
2022/08/12 06:51:39;;;;;;;5.22;1.45;;;22.30;47.90;;;;;;5081083;28;20082;-60
2022/08/12 06:54:05;;;;;;;2.67;1.58;;;22.40;47.60;;;;;;5082470;28;20032;-63
2022/08/12 06:56:33;;;;;;;2.13;1.20;;;22.60;47.40;;;;;;5073092;28;20103;-62
2022/08/12 06:59:01;;;;;;;6.32;1.35;;;22.70;47.00;;;;;;5063285;28;20059;-61
2022/08/12 07:01:30;;;;;;;1.92;1.17;;;22.90;46.50;;;;;;5041499;28;20030;-61
2022/08/12 07:03:55;;;;;;;2.08;1.20;;;23.00;46.40;;;;;;5058909;28;20025;-62
2022/08/12 07:06:22;;;;;;;2.67;1.77;;;23.10;46.10;;;;;;5060283;28;20115;-60
2022/08/12 07:08:48;;;;;;;4.05;1.75;;;23.30;45.30;;;;;;5061836;28;20563;-61
2022/08/12 07:11:14;;;;;;;12.55;2.20;;;23.40;45.20;;;;;;5060637;28;20088;-61
2022/08/12 07:13:45;;;;;;;5.20;1.42;;;23.50;44.90;;;;;;5060167;28;20057;-60
2022/08/12 07:16:17;;;;;;;3.42;1.30;;;23.70;44.10;;;;;;5059557;28;20170;-61
2022/08/12 07:18:46;;;;;;;4.35;1.30;;;23.80;43.90;;;;;;5061124;28;20150;-60
2022/08/12 07:21:13;;;;;;;2.63;1.17;;;23.90;43.30;;;;;;5058153;28;20159;-61
2022/08/12 07:23:40;;;;;;;6.25;1.45;;;24.00;42.70;;;;;;5063219;28;20452;-60
2022/08/12 07:26:09;;;;;;;11.38;3.05;;;24.10;42.80;;;;;;5055016;28;20021;-62
2022/08/12 07:28:38;;;;;;;4.45;1.50;;;24.20;42.80;;;;;;5062852;28;20127;-61
2022/08/12 07:31:11;;;;;;;4.47;1.35;;;24.30;42.60;;;;;;5060951;28;20119;-61
2022/08/12 07:33:39;;;;;;;2.13;1.13;;;24.40;42.90;;;;;;5043191;28;20052;-62
2022/08/12 07:36:09;;;;;;;15.35;1.70;;;24.50;42.90;;;;;;5065027;28;20037;-62
2022/08/12 07:38:42;;;;;;;2.88;1.05;;;24.60;42.80;;;;;;5064948;28;20061;-63
2022/08/12 07:41:17;;;;;;;1.38;1.20;;;24.70;42.30;;;;;;5062301;28;20025;-61
2022/08/12 07:43:55;;;;;;;3.30;1.42;;;24.90;42.20;;;;;;5062519;28;20055;-60
2022/08/12 07:46:24;;;;;;;2.20;1.40;;;25.00;42.10;;;;;;5048717;28;20407;-61
2022/08/12 07:48:54;;;;;;;3.88;1.15;;;25.10;41.90;;;;;;5042757;28;20051;-61
2022/08/12 07:51:21;;;;;;;2.42;1.40;;;25.30;41.20;;;;;;4992310;28;20454;-62
2022/08/12 07:53:47;;;;;;;2.35;1.13;;;25.40;41.20;;;;;;5059764;28;20116;-61
2022/08/12 07:56:13;;;;;;;1.48;1.13;;;25.50;40.70;;;;;;5064714;28;20135;-61
2022/08/12 07:58:40;;;;;;;4.80;1.30;;;25.70;40.90;;;;;;5081944;28;20064;-61
2022/08/12 08:01:09;;;;;;;4.10;1.30;;;25.80;40.70;;;;;;5060855;28;20028;-61
2022/08/12 08:03:37;;;;;;;5.20;1.45;;;25.80;40.30;;;;;;5079291;28;20013;-61
2022/08/12 08:06:09;;;;;;;5.82;1.60;;;26.00;39.90;;;;;;5079275;28;20070;-61
2022/08/12 08:08:35;;;;;;;1.92;1.40;;;26.10;39.70;;;;;;5080846;28;20025;-62
2022/08/12 08:13:46;;;;;;;5.72;1.15;;;26.30;39.60;;;;;;5080653;28;20520;-60
2022/08/12 08:16:14;;;;;;;2.63;1.30;;;26.40;39.20;;;;;;5079381;28;20029;-60
2022/08/12 08:18:40;;;;;;;1.63;1.10;;;26.50;38.80;;;;;;5079793;28;20035;-60
2022/08/12 08:21:07;;;;;;;1.95;1.10;;;26.50;39.30;;;;;;5080260;28;20055;-60
2022/08/12 08:26:21;;;;;;;3.03;1.02;;;26.70;37.60;;;;;;5080592;28;20121;-59
2022/08/12 08:28:46;;;;;;;1.45;1.25;;;26.80;37.80;;;;;;5080155;28;20637;-61
2022/08/12 08:31:13;;;;;;;1.13;1.00;;;26.90;37.90;;;;;;5080036;28;20036;-60
2022/08/12 08:33:40;;;;;;;2.60;1.17;;;27.00;37.30;;;;;;5078999;28;20028;-61
2022/08/12 08:36:08;;;;;;;3.10;1.10;;;27.10;37.30;;;;;;5080154;28;20025;-62
2022/08/12 08:38:34;;;;;;;2.30;1.10;;;27.20;37.40;;;;;;5079815;28;20304;-60
2022/08/12 08:43:44;;;;;;;6.95;1.20;;;27.30;36.70;;;;;;5080630;28;20159;-61
2022/08/12 08:46:10;;;;;;;2.20;1.10;;;27.50;36.80;;;;;;5080171;28;20048;-60
2022/08/12 08:48:35;;;;;;;2.78;1.25;;;27.60;36.90;;;;;;5079286;28;20062;-61
2022/08/12 08:51:04;;;;;;;9.00;1.02;;;27.70;36.60;;;;;;5080887;28;20098;-60
2022/08/12 08:53:30;;;;;;;2.00;1.10;;;27.80;35.80;;;;;;5080923;28;20040;-62
2022/08/12 08:55:57;;;;;;;3.38;1.27;;;27.90;35.70;;;;;;5080161;28;20096;-61
2022/08/12 08:58:25;;;;;;;4.93;1.20;;;27.90;34.20;;;;;;5079392;28;20043;-60
2022/08/12 09:00:51;;;;;;;2.47;1.10;;;28.00;34.80;;;;;;5071697;28;20027;-61
2022/08/12 09:03:17;;;;;;;1.25;0.90;;;28.00;35.00;;;;;;5078837;28;20572;-61
2022/08/12 09:05:43;;;;;;;1.58;1.00;;;28.10;35.30;;;;;;5081048;28;20029;-60
2022/08/12 09:08:10;;;;;;;1.08;0.95;;;28.10;35.00;;;;;;5077744;28;20482;-61
2022/08/12 09:10:37;;;;;;;4.05;1.40;;;28.20;34.40;;;;;;5080744;28;20032;-61
2022/08/12 09:15:47;;;;;;;1.20;1.10;;;28.30;34.20;;;;;;5075015;28;20058;-60
2022/08/12 09:18:14;;;;;;;2.00;1.30;;;28.40;34.10;;;;;;5073591;28;20041;-60
2022/08/12 09:20:40;;;;;;;3.55;1.15;;;28.40;34.00;;;;;;5079084;28;20025;-62
2022/08/12 09:23:09;;;;;;;1.73;0.90;;;28.40;33.70;;;;;;5079600;28;20376;-62
2022/08/12 09:25:38;;;;;;;1.50;0.93;;;28.40;33.50;;;;;;5078512;28;20037;-62
2022/08/12 09:28:04;;;;;;;1.55;1.20;;;28.50;33.90;;;;;;5078688;28;20024;-61
2022/08/12 09:30:30;;;;;;;1.40;0.90;;;28.60;33.70;;;;;;5079457;28;20083;-61
2022/08/12 09:32:57;;;;;;;2.25;1.13;;;28.60;33.50;;;;;;5078383;28;20025;-63
2022/08/12 09:35:26;;;;;;;2.17;0.95;;;28.70;33.50;;;;;;5079598;28;20095;-62
2022/08/12 09:37:54;;;;;;;1.77;1.00;;;28.80;33.00;;;;;;5078815;28;20047;-62
2022/08/12 09:40:22;;;;;;;2.92;0.90;;;28.90;33.10;;;;;;5080636;28;20028;-61
2022/08/12 09:45:33;;;;;;;1.45;1.17;;;29.00;33.20;;;;;;5081446;28;20035;-62
2022/08/12 09:48:07;;;;;;;2.20;0.98;;;29.10;32.70;;;;;;5082635;28;20036;-61
2022/08/12 09:50:34;;;;;;;1.85;0.90;;;29.20;32.50;;;;;;5068903;28;20066;-63
2022/08/12 09:53:06;;;;;;;2.95;1.00;;;29.20;31.90;;;;;;5082088;28;20021;-60
2022/08/12 09:55:32;;;;;;;1.90;1.05;;;29.30;31.50;;;;;;5082028;28;20029;-62
2022/08/12 09:57:58;;;;;;;0.90;0.80;;;29.30;31.20;;;;;;5063058;28;20141;-61
2022/08/12 10:00:26;;;;;;;2.53;1.13;;;29.30;31.50;;;;;;5063217;28;20510;-62
2022/08/12 10:03:03;;;;;;;5.30;1.27;;;29.40;31.40;;;;;;5066333;28;20015;-61
2022/08/12 10:05:32;;;;;;;9.27;3.00;;;29.40;31.10;;;;;;5041842;28;20045;-61
2022/08/12 10:07:59;;;;;;;2.72;0.80;;;29.40;31.40;;;;;;5063647;28;20021;-62
2022/08/12 10:10:26;;;;;;;2.35;1.25;;;29.50;31.00;;;;;;5061390;28;20037;-62
2022/08/12 10:15:43;;;;;;;8.80;0.98;;;29.60;30.80;;;;;;5060783;28;20040;-62
2022/08/12 10:18:12;;;;;;;1.60;1.13;;;29.60;30.60;;;;;;5062887;28;20056;-61
2022/08/12 10:20:39;;;;;;;2.60;0.75;;;29.60;30.60;;;;;;5060759;28;20029;-63
2022/08/12 10:23:05;;;;;;;5.30;0.90;;;29.60;30.20;;;;;;5063489;28;20029;-62
2022/08/12 10:31:00;;;;;;;1.75;0.88;;;29.70;29.30;;;;;;5064141;28;20051;-63
2022/08/12 10:33:29;;;;;;;1.90;0.98;;;29.70;29.20;;;;;;5063291;28;20033;-62
2022/08/12 10:35:56;;;;;;;1.35;0.93;;;29.70;29.30;;;;;;5062129;28;20127;-62
2022/08/12 10:38:23;;;;;;;1.05;0.70;;;29.70;28.80;;;;;;5062078;28;20037;-61
2022/08/12 10:43:42;;;;;;;;;;;29.80;28.70;;;;;;5060551;28;20493;-62
2022/08/12 10:46:15;;;;;;;4.35;0.82;;;29.80;28.40;;;;;;5045070;28;19913;-63
2022/08/12 10:48:42;;;;;;;;;;;29.90;29.10;;;;;;5061767;28;20036;-62
2022/08/12 10:51:07;;;;;;;0.80;0.80;;;29.90;28.90;;;;;;5063029;28;19916;-61
2022/08/12 10:53:33;;;;;;;1.15;0.80;;;29.90;29.30;;;;;;5061261;28;20041;-62
2022/08/12 10:55:59;;;;;;;1.30;0.70;;;30.00;29.40;;;;;;5067731;28;20139;-61
2022/08/12 10:58:24;;;;;;;3.60;0.80;;;30.10;29.40;;;;;;5081688;28;20440;-61
2022/08/12 11:00:50;;;;;;;2.15;0.80;;;30.10;29.50;;;;;;5083629;28;20028;-61
2022/08/12 11:03:17;;;;;;;1.63;0.85;;;30.20;29.90;;;;;;5077748;28;20084;-63
2022/08/12 11:05:43;;;;;;;0.90;0.90;;;30.30;29.90;;;;;;5083291;28;20021;-62
2022/08/12 11:08:10;;;;;;;1.48;0.77;;;30.40;29.40;;;;;;5080775;28;20020;-62
2022/08/12 11:10:36;;;;;;;4.22;0.98;;;30.40;28.20;;;;;;5082189;28;20059;-63
2022/08/12 11:13:02;;;;;;;1.48;0.90;;;30.50;29.00;;;;;;5081959;28;20426;-61
2022/08/12 11:15:27;;;;;;;10.90;1.23;;;30.50;28.30;;;;;;5083002;28;20028;-62
2022/08/12 11:17:53;;;;;;;3.25;1.00;;;30.50;28.40;;;;;;5080707;28;20042;-62
2022/08/12 11:20:19;;;;;;;0.98;0.73;;;30.50;28.30;;;;;;5081980;28;20039;-62
2022/08/12 11:22:55;;;;;;;2.25;0.82;;;30.60;28.50;;;;;;5063005;28;20032;-62
2022/08/12 11:25:21;;;;;;;2.25;0.93;;;30.60;28.40;;;;;;5081477;28;20028;-61
2022/08/12 11:27:46;;;;;;;1.13;0.80;;;30.70;27.40;;;;;;5081234;28;20054;-61
2022/08/12 11:30:12;;;;;;;2.10;0.77;;;30.70;28.00;;;;;;5081105;28;20453;-62
2022/08/12 11:32:37;;;;;;;2.47;1.10;;;30.80;28.20;;;;;;5082480;28;20025;-62
2022/08/12 11:35:03;;;;;;;4.47;1.00;;;30.90;28.00;;;;;;5063208;28;20028;-61
2022/08/12 11:37:30;;;;;;;1.15;0.73;;;30.90;27.20;;;;;;5080459;28;20036;-61
2022/08/12 11:39:55;;;;;;;6.30;0.93;;;31.00;27.70;;;;;;5079733;28;20031;-60
2022/08/12 11:42:21;;;;;;;1.00;0.90;;;31.10;28.20;;;;;;5077795;28;20028;-62
2022/08/12 11:44:47;;;;;;;0.88;0.80;;;31.20;28.20;;;;;;5078269;28;20432;-62
2022/08/12 11:47:12;;;;;;;2.83;0.73;;;31.30;27.60;;;;;;5080407;28;20576;-61
2022/08/12 11:49:38;;;;;;;7.40;0.85;;;31.40;27.60;;;;;;5076397;28;20036;-62
2022/08/12 11:52:04;;;;;;;10.93;1.10;;;31.40;27.60;;;;;;4987251;28;20403;-61
2022/08/12 11:54:30;;;;;;;1.05;0.80;;;31.40;27.40;;;;;;5080393;28;20048;-60
2022/08/12 11:57:00;;;;;;;3.47;0.80;;;31.40;27.40;;;;;;5079896;28;20523;-63
2022/08/12 11:59:27;;;;;;;6.53;1.00;;;31.40;27.40;;;;;;5072866;28;20127;-61
2022/08/12 12:01:52;;;;;;;0.63;0.60;;;31.40;26.90;;;;;;5086269;28;20040;-60
2022/08/12 12:04:18;;;;;;;3.47;1.13;;;31.40;27.60;;;;;;5077284;28;20071;-61
2022/08/12 12:06:44;;;;;;;2.17;0.88;;;31.30;27.40;;;;;;5076762;28;20025;-62
2022/08/12 12:09:09;;;;;;;0.60;0.60;;;31.30;28.20;;;;;;5079568;28;20121;-62
2022/08/12 12:11:35;;;;;;;5.57;0.80;;;31.40;27.70;;;;;;5079094;28;20491;-62
2022/08/12 12:14:01;;;;;;;1.95;0.85;;;31.40;28.00;;;;;;5078276;28;20463;-61
2022/08/12 12:16:26;;;;;;;2.08;0.90;;;31.50;27.70;;;;;;5076220;28;20038;-62
2022/08/12 12:18:52;;;;;;;2.03;0.80;;;31.60;27.90;;;;;;5079665;28;21308;-61
2022/08/12 12:21:18;;;;;;;3.65;0.82;;;31.60;27.20;;;;;;5079901;28;20016;-61
2022/08/12 12:23:43;;;;;;;1.60;0.80;;;31.50;27.00;;;;;;5080422;28;20407;-61
2022/08/12 12:26:09;;;;;;;1.00;0.80;;;31.40;26.60;;;;;;5081050;28;20082;-60
2022/08/12 12:28:37;;;;;;;5.68;0.77;;;31.30;27.20;;;;;;5077435;28;20460;-61
2022/08/12 12:31:04;;;;;;;1.20;0.63;;;31.30;27.70;;;;;;5080546;28;20039;-61
2022/08/12 12:33:29;;;;;;;1.90;1.00;;;31.40;27.60;;;;;;5079687;28;20032;-61
2022/08/12 12:35:55;;;;;;;7.80;0.80;;;31.40;27.50;;;;;;5081327;28;20364;-60
2022/08/12 12:38:21;;;;;;;4.95;0.80;;;31.40;27.10;;;;;;5079813;28;20115;-60
2022/08/12 12:40:47;;;;;;;1.80;0.75;;;31.40;27.40;;;;;;5079292;28;20033;-62
2022/08/12 12:43:14;;;;;;;2.72;0.98;;;31.40;27.20;;;;;;5079848;28;20025;-62
2022/08/12 12:45:41;;;;;;;8.10;0.90;;;31.40;27.30;;;;;;5070950;28;20513;-61
2022/08/12 12:48:09;;;;;;;0.80;0.68;;;31.40;27.20;;;;;;5078965;28;20115;-62
2022/08/12 12:50:43;;;;;;;5.07;0.70;;;31.40;27.20;;;;;;5063418;28;20028;-63
2022/08/12 12:53:11;;;;;;;1.00;0.80;;;31.40;27.40;;;;;;5077746;28;20036;-63
2022/08/12 12:55:37;;;;;;;4.40;1.02;;;31.40;27.00;;;;;;5076539;28;20347;-62
2022/08/12 12:58:15;;;;;;;3.70;0.80;;;31.50;26.70;;;;;;5075858;28;20048;-63
2022/08/12 13:00:43;;;;;;;4.53;0.88;;;31.50;27.20;;;;;;5078586;28;20040;-61
2022/08/12 13:03:17;;;;;;;1.30;0.80;;;31.60;27.50;;;;;;5075250;28;20522;-63
2022/08/12 13:05:43;;;;;;;2.53;1.23;;;31.80;27.90;;;;;;5062025;28;20017;-62
2022/08/12 13:08:26;;;;;;;3.15;1.15;;;31.90;27.00;;;;;;5073832;28;20060;-62
2022/08/12 13:10:53;;;;;;;1.77;0.90;;;32.00;26.00;;;;;;5081190;28;20041;-63
2022/08/12 13:13:20;;;;;;;2.15;0.90;;;32.00;26.70;;;;;;5079093;28;20063;-62
2022/08/12 13:15:48;;;;;;;3.45;0.95;;;32.00;27.40;;;;;;5082463;28;20088;-62
2022/08/12 13:18:16;;;;;;;2.85;0.80;;;32.10;26.80;;;;;;5082014;28;20079;-60
2022/08/12 13:20:45;;;;;;;4.18;0.75;;;32.10;26.70;;;;;;5082666;28;20124;-60
2022/08/12 13:23:13;;;;;;;2.05;0.73;;;32.20;26.50;;;;;;5083081;28;20067;-60
2022/08/12 13:25:41;;;;;;;1.02;0.80;;;32.20;26.60;;;;;;5084104;28;20090;-60
2022/08/12 13:28:19;;;;;;;2.22;1.00;;;32.30;27.30;;;;;;5084288;28;20037;-61
2022/08/12 13:30:45;;;;;;;1.73;0.60;;;32.40;26.00;;;;;;5067225;28;20037;-61
2022/08/12 13:33:13;;;;;;;0.95;0.82;;;32.50;26.30;;;;;;5084234;28;20028;-61
2022/08/12 13:35:39;;;;;;;0.60;0.60;;;32.50;25.60;;;;;;5076372;28;20053;-60
2022/08/12 13:38:09;;;;;;;3.78;1.13;;;32.50;25.40;;;;;;5082871;28;20466;-61
2022/08/12 13:40:35;;;;;;;2.42;0.68;;;32.40;24.90;;;;;;5084841;28;20494;-60
2022/08/12 13:43:05;;;;;;;1.98;0.77;;;32.20;25.40;;;;;;5083890;28;20034;-60
2022/08/12 13:45:31;;;;;;;3.30;0.80;;;32.10;25.60;;;;;;5084332;28;20059;-60
2022/08/12 13:48:01;;;;;;;3.60;0.70;;;32.10;25.40;;;;;;5081593;28;20033;-59
2022/08/12 13:50:42;;;;;;;3.05;0.57;;;32.20;25.30;;;;;;4965662;28;20036;-61
2022/08/12 13:53:11;;;;;;;1.08;0.60;;;32.20;25.40;;;;;;5083871;28;20107;-60
2022/08/12 13:55:44;;;;;;;4.78;0.85;;;32.30;25.50;;;;;;5084622;28;20047;-59
2022/08/12 13:58:12;;;;;;;1.30;0.80;;;32.40;25.50;;;;;;5073366;28;20113;-59
2022/08/12 14:00:38;;;;;;;1.80;0.90;;;32.50;26.10;;;;;;5084596;28;20097;-61
2022/08/12 14:03:04;;;;;;;1.63;0.80;;;32.50;25.30;;;;;;5064881;28;20025;-61
2022/08/12 14:05:32;;;;;;;3.35;0.60;;;32.50;25.30;;;;;;5082702;28;20109;-60
2022/08/12 14:08:06;;;;;;;1.60;0.80;;;32.30;25.10;;;;;;5078195;28;20447;-61
2022/08/12 14:10:38;;;;;;;0.70;0.60;;;32.20;25.00;;;;;;5082680;28;20409;-61
2022/08/12 14:13:11;;;;;;;0.52;0.50;;;32.10;24.90;;;;;;5081783;28;20024;-60
2022/08/12 14:15:44;;;;;;;5.40;0.70;;;32.20;25.00;;;;;;5076721;28;20355;-62
2022/08/12 14:18:21;;;;;;;3.75;0.60;;;32.30;25.30;;;;;;5086599;28;20493;-61
2022/08/12 14:20:57;;;;;;;1.27;0.57;;;32.50;25.80;;;;;;5080089;28;20133;-62
2022/08/12 14:23:24;;;;;;;2.55;0.50;;;32.70;25.60;;;;;;5081396;28;20033;-60
2022/08/12 14:25:51;;;;;;;1.55;0.90;;;32.90;24.60;;;;;;5081622;28;20025;-59
2022/08/12 14:28:18;;;;;;;1.90;1.23;;;32.90;24.30;;;;;;5079449;28;20039;-59
2022/08/12 14:30:57;;;;;;;1.67;0.77;;;32.80;23.80;;;;;;5079907;28;20047;-59
2022/08/12 14:33:25;;;;;;;1.02;0.57;;;32.70;24.10;;;;;;5080116;28;20032;-60
2022/08/12 14:35:51;;;;;;;1.27;0.50;;;32.60;23.60;;;;;;5081627;28;20520;-61
2022/08/12 14:38:20;;;;;;;0.43;0.40;;;32.60;23.60;;;;;;5082043;28;20488;-62
2022/08/12 14:40:56;;;;;;;3.05;0.40;;;32.70;23.80;;;;;;5067244;28;20079;-61
2022/08/12 14:43:28;;;;;;;3.35;0.47;;;32.80;24.10;;;;;;5074360;28;20024;-60
2022/08/12 14:45:55;;;;;;;2.15;0.50;;;33.00;23.60;;;;;;5081992;28;20024;-62